Time;durP1;ratioP1;P1;durP2;ratioP2;P2;SDS_P1;SDS_P2;PMS_P1;PMS_P2;Temp;Humidity;BMP_temperature;BMP_pressure;BME280_temperature;BME280_humidity;BME280_pressure;Samples;Min_cycle;Max_cycle;Signal;HPM_P1;HPM_P2
2023/07/18 00:05:12;;;;;;;6.18;4.68;;;31.50;81.40;;;;;;10853700;32;20031;-73
2023/07/18 00:11:14;;;;;;;8.63;5.70;;;31.40;81.30;;;;;;10867096;32;20055;-73
2023/07/18 00:17:16;;;;;;;7.62;4.70;;;31.30;81.60;;;;;;10853196;32;20032;-72
2023/07/18 00:23:18;;;;;;;6.87;4.82;;;31.30;82.00;;;;;;10866835;32;20024;-72
2023/07/18 00:29:21;;;;;;;9.60;5.25;;;31.30;82.00;;;;;;10849027;32;20040;-72
2023/07/18 00:35:25;;;;;;;10.73;5.95;;;31.20;81.90;;;;;;10866433;32;20020;-73
2023/07/18 00:41:27;;;;;;;7.37;6.00;;;31.20;81.90;;;;;;10866320;32;20053;-73
2023/07/18 00:47:29;;;;;;;9.45;6.00;;;31.10;82.10;;;;;;10852120;32;20401;-73
2023/07/18 00:53:32;;;;;;;8.90;5.97;;;30.90;82.40;;;;;;10865871;32;20047;-72
2023/07/18 00:59:37;;;;;;;12.35;7.30;;;30.80;82.50;;;;;;10851744;32;20094;-72
2023/07/18 01:05:40;;;;;;;13.93;8.27;;;30.70;82.60;;;;;;10865619;32;20028;-72
2023/07/18 01:11:42;;;;;;;9.30;7.32;;;30.60;82.80;;;;;;10865390;32;20397;-71
2023/07/18 01:17:47;;;;;;;9.55;7.05;;;30.60;83.00;;;;;;10864445;32;20062;-72
2023/07/18 01:23:50;;;;;;;15.45;9.23;;;30.60;83.10;;;;;;10865082;32;20028;-71
2023/07/18 01:29:52;;;;;;;12.10;7.40;;;30.60;83.00;;;;;;10851117;32;20058;-71
2023/07/18 01:35:54;;;;;;;11.68;8.70;;;30.40;83.20;;;;;;10864732;32;20081;-72
2023/07/18 01:41:56;;;;;;;9.43;6.97;;;30.30;83.20;;;;;;10864517;32;20020;-73
2023/07/18 01:48:01;;;;;;;15.57;6.65;;;30.30;83.40;;;;;;10864345;32;20334;-73
2023/07/18 01:54:04;;;;;;;8.98;7.25;;;30.40;83.30;;;;;;10864251;32;20065;-72
2023/07/18 02:00:18;;;;;;;10.20;7.37;;;30.40;83.30;;;;;;10863975;32;20024;-73
2023/07/18 02:06:24;;;;;;;10.00;5.37;;;30.40;83.40;;;;;;10863807;32;20012;-72
2023/07/18 02:12:27;;;;;;;11.25;7.18;;;30.40;83.50;;;;;;10862945;32;20042;-73
2023/07/18 02:18:29;;;;;;;9.98;7.22;;;30.30;83.50;;;;;;10863423;32;20015;-72
2023/07/18 02:24:32;;;;;;;11.10;7.75;;;30.30;83.50;;;;;;10863334;32;20016;-72
2023/07/18 02:30:35;;;;;;;9.68;7.78;;;30.30;83.70;;;;;;10849817;32;20028;-72
2023/07/18 02:36:37;;;;;;;8.65;7.18;;;30.30;83.90;;;;;;10862850;32;20038;-73
2023/07/18 02:42:39;;;;;;;10.25;8.75;;;30.30;84.00;;;;;;10862777;32;20008;-72
2023/07/18 02:48:42;;;;;;;11.10;8.18;;;30.30;83.90;;;;;;10862571;32;20042;-72
2023/07/18 02:54:44;;;;;;;9.10;6.87;;;30.30;84.00;;;;;;10862501;32;20049;-71
2023/07/18 03:00:46;;;;;;;9.23;7.18;;;30.30;84.10;;;;;;10862448;32;20008;-73
2023/07/18 03:06:51;;;;;;;8.98;6.75;;;30.30;84.10;;;;;;10862027;32;20032;-73
2023/07/18 03:12:53;;;;;;;8.52;6.85;;;30.30;84.20;;;;;;10861947;32;20058;-73
2023/07/18 03:18:55;;;;;;;10.43;6.50;;;30.30;84.10;;;;;;10848601;32;20051;-73
2023/07/18 03:25:05;;;;;;;8.35;5.78;;;30.30;84.10;;;;;;10861495;32;20038;-73
2023/07/18 03:31:07;;;;;;;9.95;7.60;;;30.30;84.00;;;;;;10861461;32;20031;-73
2023/07/18 03:37:10;;;;;;;9.85;6.82;;;30.30;83.90;;;;;;10858719;32;20020;-73
2023/07/18 03:43:13;;;;;;;17.98;10.18;;;30.20;84.10;;;;;;10861323;32;20007;-73
2023/07/18 03:49:15;;;;;;;11.85;7.95;;;30.20;84.10;;;;;;10861068;32;20059;-73
2023/07/18 03:55:17;;;;;;;10.40;8.63;;;30.20;83.90;;;;;;10861078;32;20047;-73
2023/07/18 04:01:19;;;;;;;11.45;9.52;;;30.20;83.80;;;;;;10847398;32;20027;-73
2023/07/18 04:07:21;;;;;;;11.65;8.57;;;30.10;83.40;;;;;;10860610;32;20042;-73
2023/07/18 04:13:23;;;;;;;13.68;8.80;;;30.10;83.30;;;;;;10860685;32;20019;-73
2023/07/18 04:19:25;;;;;;;10.40;8.85;;;30.00;83.30;;;;;;10856538;32;20436;-73
2023/07/18 04:25:35;;;;;;;13.55;10.30;;;30.00;83.30;;;;;;10860224;32;20043;-73
2023/07/18 04:31:37;;;;;;;11.07;8.77;;;30.00;83.60;;;;;;10860161;32;20050;-73
2023/07/18 04:37:43;;;;;;;14.80;11.85;;;30.00;83.90;;;;;;10864544;32;20020;-73
2023/07/18 04:43:47;;;;;;;10.60;8.98;;;30.00;84.10;;;;;;10866180;32;20385;-73
2023/07/18 04:49:49;;;;;;;15.63;10.55;;;30.10;84.00;;;;;;10866081;32;20028;-73
2023/07/18 04:55:51;;;;;;;12.15;8.15;;;30.10;83.80;;;;;;10865952;32;20338;-73
2023/07/18 05:01:54;;;;;;;10.35;7.68;;;30.10;83.70;;;;;;10865753;32;20020;-72
2023/07/18 05:08:00;;;;;;;15.32;7.43;;;30.10;83.70;;;;;;10865452;32;20330;-73
2023/07/18 05:14:02;;;;;;;12.48;7.60;;;30.20;83.70;;;;;;10865342;32;20028;-73
2023/07/18 05:20:05;;;;;;;8.43;6.45;;;30.30;83.60;;;;;;10839574;32;20031;-73
2023/07/18 05:26:08;;;;;;;13.18;6.45;;;30.30;83.50;;;;;;10851850;32;20024;-72
2023/07/18 05:32:10;;;;;;;11.88;6.80;;;30.40;83.60;;;;;;10864709;32;20050;-73
2023/07/18 05:38:12;;;;;;;9.32;6.93;;;30.40;83.80;;;;;;10864713;32;20016;-73
2023/07/18 05:44:16;;;;;;;7.78;6.10;;;30.50;84.00;;;;;;10864411;32;20015;-73
2023/07/18 05:50:18;;;;;;;8.18;6.37;;;30.60;83.60;;;;;;10863622;32;20042;-73
2023/07/18 05:56:20;;;;;;;8.57;6.45;;;30.70;83.80;;;;;;10864011;32;20016;-73
2023/07/18 06:02:22;;;;;;;6.97;4.07;;;30.80;83.50;;;;;;10864038;32;20012;-72
2023/07/18 06:08:24;;;;;;;11.55;7.15;;;30.90;83.30;;;;;;10849960;32;20054;-73
2023/07/18 06:14:26;;;;;;;12.25;6.65;;;31.00;83.20;;;;;;10863528;32;20020;-72
2023/07/18 06:20:28;;;;;;;10.02;6.43;;;30.90;83.20;;;;;;10863460;32;20019;-72
2023/07/18 06:26:30;;;;;;;8.15;5.72;;;31.10;83.20;;;;;;10863197;32;20039;-73
2023/07/18 06:32:32;;;;;;;7.45;6.07;;;31.10;83.00;;;;;;10863105;32;20287;-72
2023/07/18 06:38:34;;;;;;;6.90;5.60;;;31.30;82.50;;;;;;10862983;32;20012;-72
2023/07/18 06:44:37;;;;;;;7.78;6.32;;;31.30;82.60;;;;;;10862741;32;20039;-72
2023/07/18 06:50:48;;;;;;;9.38;6.55;;;31.40;82.90;;;;;;10849920;32;20122;-72
2023/07/18 06:56:50;;;;;;;12.13;7.82;;;31.40;82.50;;;;;;10862565;32;20011;-71
2023/07/18 07:02:52;;;;;;;14.13;7.80;;;31.40;82.20;;;;;;10858952;32;20050;-70
2023/07/18 07:08:54;;;;;;;10.75;6.68;;;31.30;81.70;;;;;;10848985;32;20020;-72
2023/07/18 07:14:56;;;;;;;8.35;6.62;;;31.50;82.20;;;;;;10862009;32;20333;-72
2023/07/18 07:20:58;;;;;;;8.55;7.32;;;31.60;81.60;;;;;;10849399;32;20031;-71
2023/07/18 07:27:00;;;;;;;10.10;7.25;;;31.70;81.30;;;;;;10865840;27;20039;-71
2023/07/18 07:33:08;;;;;;;12.25;7.55;;;31.80;81.60;;;;;;10860025;32;20042;-72
2023/07/18 07:39:10;;;;;;;14.07;8.15;;;31.80;81.60;;;;;;10861340;32;20199;-72
2023/07/18 07:45:14;;;;;;;10.25;7.82;;;31.90;82.10;;;;;;10861297;32;20046;-72
2023/07/18 07:51:16;;;;;;;9.52;6.32;;;32.00;80.50;;;;;;10847960;32;20098;-72
2023/07/18 07:57:18;;;;;;;9.52;6.72;;;32.10;80.20;;;;;;10847772;32;20382;-71
2023/07/18 08:03:20;;;;;;;6.75;5.93;;;32.30;79.90;;;;;;10847612;32;20016;-72
2023/07/18 08:09:22;;;;;;;10.27;6.70;;;32.30;80.20;;;;;;10848365;32;20061;-72
2023/07/18 08:15:26;;;;;;;12.40;6.97;;;32.40;79.90;;;;;;10867103;32;20271;-72
2023/07/18 08:21:28;;;;;;;7.87;5.65;;;32.50;81.50;;;;;;10866979;32;20345;-74
2023/07/18 08:27:30;;;;;;;11.38;5.68;;;32.60;80.30;;;;;;10866582;32;20055;-72
2023/07/18 08:33:32;;;;;;;7.30;5.65;;;32.70;79.90;;;;;;10866654;32;20034;-73
2023/07/18 08:39:34;;;;;;;10.00;5.55;;;32.80;80.00;;;;;;10866444;32;20027;-71
2023/07/18 08:45:37;;;;;;;6.53;5.22;;;32.90;78.70;;;;;;10866243;32;20047;-70
2023/07/18 08:51:42;;;;;;;9.57;5.32;;;32.90;78.10;;;;;;10852519;32;20062;-72
2023/07/18 08:57:46;;;;;;;9.30;6.35;;;33.00;77.00;;;;;;10865895;32;20024;-71
2023/07/18 09:03:48;;;;;;;12.05;6.50;;;33.10;77.50;;;;;;10865736;32;20061;-71
2023/07/18 09:09:50;;;;;;;8.90;5.97;;;33.30;77.30;;;;;;10865517;32;20024;-71
2023/07/18 09:15:52;;;;;;;9.88;6.20;;;33.40;77.50;;;;;;10865481;32;20024;-72
2023/07/18 09:21:58;;;;;;;11.52;5.87;;;33.50;76.80;;;;;;10864859;32;20011;-71
2023/07/18 09:28:01;;;;;;;;;;;33.60;75.90;;;;;;10865202;32;20027;-71
2023/07/18 09:34:12;;;;;;;9.05;6.32;;;33.80;77.90;;;;;;10858838;32;19923;-70
2023/07/18 09:40:16;;;;;;;13.93;6.03;;;33.80;76.80;;;;;;10827614;33;20038;-72
2023/07/18 09:46:18;;;;;;;7.70;5.68;;;33.90;76.20;;;;;;10827476;33;20042;-72
2023/07/18 09:52:44;;;;;;;7.40;4.97;;;34.00;75.40;;;;;;10827230;33;20047;-72
2023/07/18 09:58:49;;;;;;;7.65;3.47;;;34.10;75.10;;;;;;10813539;33;20036;-72
2023/07/18 10:04:52;;;;;;;7.25;6.22;;;34.30;76.10;;;;;;10826944;33;20020;-72
2023/07/18 10:11:07;;;;;;;6.47;4.85;;;34.40;75.10;;;;;;10826572;33;20050;-72
2023/07/18 10:17:28;;;;;;;9.05;5.30;;;34.60;73.20;;;;;;10826591;33;20020;-72
2023/07/18 10:23:42;;;;;;;12.75;6.53;;;34.70;71.20;;;;;;10813517;32;20386;-71
2023/07/18 10:30:08;;;;;;;7.78;5.10;;;34.80;70.30;;;;;;10826125;33;20322;-71
2023/07/18 10:36:23;;;;;;;10.90;5.82;;;34.90;70.00;;;;;;10812167;32;20044;-70
2023/07/18 10:42:29;;;;;;;9.37;5.83;;;35.10;69.70;;;;;;10825888;33;20020;-70
2023/07/18 10:48:31;;;;;;;12.90;7.07;;;35.20;68.30;;;;;;10825435;33;20035;-71
2023/07/18 10:54:33;;;;;;;5.37;4.15;;;35.40;68.10;;;;;;10821666;33;20016;-71
2023/07/18 11:00:35;;;;;;;7.53;4.70;;;35.40;68.20;;;;;;10825343;33;20020;-71
2023/07/18 11:06:53;;;;;;;9.38;5.87;;;35.70;66.70;;;;;;10825187;33;20338;-72
2023/07/18 11:12:55;;;;;;;14.30;6.05;;;35.80;66.60;;;;;;10812011;32;20024;-71
2023/07/18 11:19:00;;;;;;;8.07;5.32;;;35.90;66.00;;;;;;10824872;33;20178;-72
2023/07/18 11:25:02;;;;;;;10.30;4.55;;;36.10;65.30;;;;;;10811436;32;20058;-72
2023/07/18 11:31:04;;;;;;;10.23;4.70;;;36.30;64.30;;;;;;10824665;33;20413;-72
2023/07/18 11:37:07;;;;;;;8.45;4.25;;;36.40;64.70;;;;;;10824582;33;20444;-72
2023/07/18 11:43:17;;;;;;;10.63;6.05;;;36.60;63.60;;;;;;10825261;32;20047;-72
2023/07/18 11:49:35;;;;;;;7.00;4.00;;;36.80;61.60;;;;;;10830875;33;20067;-72
2023/07/18 11:55:37;;;;;;;12.52;5.18;;;36.70;60.90;;;;;;10830730;33;20043;-71
2023/07/18 12:01:39;;;;;;;10.93;5.00;;;36.80;62.60;;;;;;10830530;33;20307;-71
2023/07/18 12:07:44;;;;;;;6.70;4.97;;;36.80;64.00;;;;;;10830269;33;20023;-72
2023/07/18 12:13:46;;;;;;;10.23;6.20;;;36.70;59.60;;;;;;10817141;33;20039;-73
2023/07/18 12:20:19;;;;;;;9.60;5.15;;;36.80;58.80;;;;;;10830591;32;20043;-72
2023/07/18 12:26:22;;;;;;;6.12;4.37;;;36.90;58.40;;;;;;10824979;32;20047;-72
2023/07/18 12:32:23;;;;;;;7.30;5.32;;;37.00;58.20;;;;;;10827224;33;20040;-72
2023/07/18 12:38:25;;;;;;;13.30;5.15;;;36.50;59.20;;;;;;10829409;33;20300;-71
2023/07/18 12:44:44;;;;;;;13.32;5.10;;;36.00;60.30;;;;;;10829092;33;20390;-72
2023/07/18 12:50:46;;;;;;;7.53;5.53;;;35.90;60.10;;;;;;10829151;33;20437;-71
2023/07/18 12:56:49;;;;;;;7.90;4.87;;;36.10;59.30;;;;;;10828370;32;20024;-73
2023/07/18 13:02:51;;;;;;;9.93;5.90;;;35.90;59.70;;;;;;10827560;33;20031;-72
2023/07/18 13:09:06;;;;;;;11.68;7.57;;;36.20;62.50;;;;;;10828461;33;20342;-71
2023/07/18 13:15:08;;;;;;;7.53;5.45;;;36.40;60.90;;;;;;10826406;33;20200;-72
2023/07/18 13:21:10;;;;;;;10.65;4.57;;;36.50;59.10;;;;;;10828322;33;20016;-72
2023/07/18 13:27:12;;;;;;;9.95;5.87;;;36.60;61.80;;;;;;10828039;33;20357;-71
2023/07/18 13:33:16;;;;;;;8.27;5.70;;;36.60;60.10;;;;;;10828942;33;20429;-72
2023/07/18 13:39:33;;;;;;;6.10;4.47;;;36.60;59.70;;;;;;10825433;33;20066;-72
2023/07/18 13:45:36;;;;;;;7.00;4.78;;;36.70;59.00;;;;;;10827519;33;20032;-73
2023/07/18 13:51:38;;;;;;;6.60;4.68;;;36.70;58.40;;;;;;10826371;33;20019;-73
2023/07/18 13:57:41;;;;;;;6.95;5.03;;;36.70;57.70;;;;;;10827124;33;20032;-72
2023/07/18 14:03:43;;;;;;;5.60;4.12;;;36.70;58.10;;;;;;10826215;33;20024;-72
2023/07/18 14:09:48;;;;;;;12.35;5.35;;;36.60;58.90;;;;;;10821850;33;20028;-72
2023/07/18 14:15:54;;;;;;;12.60;6.28;;;36.60;58.00;;;;;;10826642;33;20024;-71
2023/07/18 14:22:48;;;;;;;8.88;5.10;;;36.60;57.60;;;;;;10826539;33;20047;-72
2023/07/18 14:29:16;;;;;;;6.83;3.77;;;36.50;59.10;;;;;;10826158;33;20311;-72
2023/07/18 14:35:23;;;;;;;4.43;3.50;;;36.60;58.50;;;;;;10826092;33;20330;-72
2023/07/18 14:41:25;;;;;;;6.70;4.32;;;36.60;57.70;;;;;;10825699;33;20066;-73
2023/07/18 14:47:28;;;;;;;5.12;3.72;;;36.70;57.40;;;;;;10825682;33;20043;-72
2023/07/18 14:53:33;;;;;;;7.00;4.40;;;36.70;57.50;;;;;;10825502;33;20024;-72
2023/07/18 14:59:37;;;;;;;6.35;3.55;;;36.60;57.20;;;;;;10825365;33;20016;-73
2023/07/18 15:05:40;;;;;;;6.97;4.97;;;36.60;56.90;;;;;;10825116;33;20023;-73
2023/07/18 15:11:45;;;;;;;6.62;3.70;;;36.50;58.30;;;;;;10824255;33;20046;-72
2023/07/18 15:17:48;;;;;;;7.85;4.30;;;36.30;60.70;;;;;;10853685;32;20082;-72
2023/07/18 15:23:50;;;;;;;7.22;3.92;;;36.40;59.50;;;;;;10861687;32;20016;-71
2023/07/18 15:29:52;;;;;;;8.43;4.97;;;36.40;58.70;;;;;;10445574;27;12122540;-72
2023/07/18 15:35:54;;;;;;;9.98;5.28;;;36.40;62.30;;;;;;10783278;33;20024;-71
2023/07/18 15:41:56;;;;;;;5.15;3.92;;;36.10;63.50;;;;;;10783144;33;20045;-72
2023/07/18 15:47:58;;;;;;;6.45;3.78;;;36.00;63.20;;;;;;10784023;33;20047;-73
2023/07/18 15:54:04;;;;;;;8.38;3.90;;;36.10;61.40;;;;;;10785010;33;20028;-72
2023/07/18 16:00:09;;;;;;;9.97;3.70;;;36.10;61.20;;;;;;10786880;33;20063;-72
2023/07/18 16:06:23;;;;;;;8.52;4.28;;;36.30;60.40;;;;;;10786859;33;20013;-73
2023/07/18 16:12:25;;;;;;;7.80;4.37;;;36.40;59.70;;;;;;10786707;33;20019;-72
2023/07/18 16:18:28;;;;;;;8.43;4.12;;;36.40;59.40;;;;;;10786683;33;20304;-72
2023/07/18 16:24:30;;;;;;;6.65;4.18;;;36.30;58.70;;;;;;10786447;33;20016;-73
2023/07/18 16:30:33;;;;;;;7.22;4.37;;;36.30;59.50;;;;;;10787710;33;20016;-73
2023/07/18 16:36:35;;;;;;;6.35;3.90;;;36.30;60.10;;;;;;10792544;33;20016;-73
2023/07/18 16:42:38;;;;;;;13.62;4.05;;;36.10;60.80;;;;;;10791262;33;20382;-72
2023/07/18 16:48:40;;;;;;;7.25;3.95;;;36.00;60.90;;;;;;10791826;33;20414;-73
2023/07/18 16:54:42;;;;;;;6.22;3.28;;;36.00;60.50;;;;;;10842271;32;20047;-72
2023/07/18 17:00:44;;;;;;;9.73;3.22;;;35.90;61.80;;;;;;10791869;33;20016;-72
2023/07/18 17:06:48;;;;;;;6.12;3.05;;;35.80;62.50;;;;;;10792012;33;20323;-72
2023/07/18 17:12:51;;;;;;;12.75;4.43;;;35.60;63.10;;;;;;10791734;33;20354;-72
2023/07/18 17:18:53;;;;;;;10.80;3.12;;;35.60;63.50;;;;;;10791494;33;20047;-72
2023/07/18 17:24:55;;;;;;;5.12;2.97;;;35.60;63.70;;;;;;10778278;33;20043;-71
2023/07/18 17:30:56;;;;;;;6.15;3.42;;;35.60;63.90;;;;;;10790826;33;20055;-71
2023/07/18 17:36:59;;;;;;;5.60;2.90;;;35.70;64.10;;;;;;10791068;32;20063;-71
2023/07/18 17:43:03;;;;;;;5.10;3.10;;;35.60;64.30;;;;;;10790680;33;20013;-71
2023/07/18 17:49:05;;;;;;;8.23;2.65;;;35.60;65.00;;;;;;10790667;33;20020;-71
2023/07/18 17:55:10;;;;;;;4.75;2.92;;;35.60;65.50;;;;;;10785724;33;20060;-71
2023/07/18 18:01:13;;;;;;;7.18;3.08;;;35.50;65.60;;;;;;10790287;33;20024;-72
2023/07/18 18:07:15;;;;;;;8.10;3.47;;;35.40;65.80;;;;;;10789105;33;20391;-71
2023/07/18 18:13:17;;;;;;;5.93;3.47;;;35.30;67.00;;;;;;10789884;33;20082;-72
2023/07/18 18:19:30;;;;;;;10.27;2.62;;;35.10;67.60;;;;;;10789828;33;20043;-72
2023/07/18 18:25:54;;;;;;;5.72;3.30;;;34.90;68.60;;;;;;10789537;33;20429;-70
2023/07/18 18:31:56;;;;;;;6.72;4.03;;;34.90;68.80;;;;;;10752758;33;20043;-71
2023/07/18 18:37:58;;;;;;;6.05;2.92;;;34.80;70.10;;;;;;10751440;33;20040;-71
2023/07/18 18:44:00;;;;;;;5.05;3.40;;;34.60;71.10;;;;;;10739206;33;20048;-72
2023/07/18 18:50:03;;;;;;;5.45;3.15;;;34.40;72.70;;;;;;10749698;33;20025;-71
2023/07/18 18:56:05;;;;;;;6.70;3.40;;;34.30;74.60;;;;;;10751690;33;20388;-72
2023/07/18 19:02:07;;;;;;;8.00;2.87;;;34.10;74.50;;;;;;10752885;33;20028;-70
2023/07/18 19:08:09;;;;;;;3.85;2.35;;;33.80;75.50;;;;;;10751539;33;20106;-73
2023/07/18 19:14:11;;;;;;;5.22;3.00;;;33.60;76.40;;;;;;10738310;33;20327;-72
2023/07/18 19:20:13;;;;;;;3.50;2.10;;;33.50;76.60;;;;;;10752279;33;20319;-72
2023/07/18 19:26:15;;;;;;;3.95;1.67;;;33.50;76.30;;;;;;10751569;33;20444;-72
2023/07/18 19:32:18;;;;;;;9.88;2.90;;;33.40;76.40;;;;;;10751201;33;20383;-72
2023/07/18 19:38:42;;;;;;;2.65;1.55;;;33.30;77.10;;;;;;10749736;32;20051;-72
2023/07/18 19:44:45;;;;;;;2.05;0.95;;;33.20;77.20;;;;;;10750833;33;20051;-72
2023/07/18 19:50:47;;;;;;;1.77;1.08;;;33.10;77.50;;;;;;10749792;33;20028;-72
2023/07/18 19:56:53;;;;;;;1.87;0.93;;;32.90;77.80;;;;;;10752070;33;20017;-72
2023/07/18 20:02:56;;;;;;;3.65;1.85;;;32.90;77.40;;;;;;10752475;33;20429;-73
2023/07/18 20:08:58;;;;;;;4.20;1.73;;;32.90;77.20;;;;;;10757870;33;20052;-73
2023/07/18 20:15:00;;;;;;;2.65;1.62;;;32.80;77.30;;;;;;10752974;33;20028;-73
2023/07/18 20:21:02;;;;;;;1.45;1.20;;;32.60;77.40;;;;;;10757326;33;20040;-73
2023/07/18 20:27:05;;;;;;;2.78;1.73;;;32.60;77.50;;;;;;10756940;33;20025;-73
2023/07/18 20:33:07;;;;;;;3.33;0.90;;;32.40;77.60;;;;;;10757617;33;20059;-73
2023/07/18 20:39:09;;;;;;;2.42;1.25;;;32.40;77.80;;;;;;10757433;33;20021;-73
2023/07/18 20:45:11;;;;;;;1.67;0.95;;;32.50;77.90;;;;;;10757351;33;20013;-73
2023/07/18 20:51:13;;;;;;;1.55;1.20;;;32.50;77.90;;;;;;10755127;33;20068;-73
2023/07/18 20:57:15;;;;;;;1.80;1.00;;;32.40;77.80;;;;;;10755692;33;20020;-73
2023/07/18 21:03:17;;;;;;;2.25;1.20;;;32.30;77.90;;;;;;10743026;32;20418;-73
2023/07/18 21:09:19;;;;;;;1.85;0.90;;;32.30;77.90;;;;;;10755906;33;20021;-73
2023/07/18 21:15:21;;;;;;;1.10;0.90;;;32.10;78.10;;;;;;10741417;33;20040;-73
2023/07/18 21:21:23;;;;;;;3.62;1.20;;;32.10;78.40;;;;;;10737910;32;20396;-73
2023/07/18 21:27:26;;;;;;;1.35;1.00;;;32.10;78.20;;;;;;10755286;33;20039;-73
2023/07/18 21:33:28;;;;;;;2.03;1.30;;;32.00;78.10;;;;;;10755189;33;20079;-73
2023/07/18 21:39:30;;;;;;;5.20;1.12;;;32.00;77.80;;;;;;10754832;33;20319;-73
2023/07/18 21:45:32;;;;;;;2.30;1.20;;;31.80;77.60;;;;;;10740781;33;20433;-73
2023/07/18 21:51:35;;;;;;;1.27;1.00;;;31.80;77.80;;;;;;10755966;33;20025;-73
2023/07/18 21:57:37;;;;;;;2.37;1.02;;;31.80;77.90;;;;;;10755894;33;20172;-73
2023/07/18 22:03:40;;;;;;;1.08;0.82;;;31.80;77.90;;;;;;10754471;33;20040;-73
2023/07/18 22:09:42;;;;;;;3.50;1.12;;;31.80;77.60;;;;;;10754292;33;20040;-73
2023/07/18 22:15:56;;;;;;;1.80;0.80;;;31.70;77.90;;;;;;10789980;32;20323;-73
2023/07/18 22:22:18;;;;;;;9.90;1.92;;;31.50;78.10;;;;;;10753738;33;20083;-73
2023/07/18 22:28:20;;;;;;;1.83;1.30;;;31.30;78.50;;;;;;10752652;33;20024;-73
2023/07/18 22:34:22;;;;;;;2.65;1.55;;;31.30;78.40;;;;;;10752930;33;20029;-73
2023/07/18 22:40:24;;;;;;;3.17;1.27;;;31.30;78.00;;;;;;10754069;33;20024;-73
2023/07/18 22:46:26;;;;;;;2.05;1.25;;;31.20;78.10;;;;;;10752781;33;20394;-73
2023/07/18 22:52:28;;;;;;;3.80;1.80;;;31.00;78.30;;;;;;10752533;33;20382;-73
2023/07/18 22:58:30;;;;;;;5.57;1.95;;;30.90;78.50;;;;;;10754125;33;20013;-73
2023/07/18 23:04:32;;;;;;;4.82;1.73;;;31.00;78.10;;;;;;10753404;33;20025;-73
2023/07/18 23:10:34;;;;;;;0.95;0.73;;;30.90;78.00;;;;;;10750892;33;20051;-73
2023/07/18 23:16:36;;;;;;;2.35;1.25;;;30.80;78.20;;;;;;10752585;33;20025;-73
2023/07/18 23:22:38;;;;;;;3.25;1.42;;;30.70;78.40;;;;;;10751744;33;20052;-73
2023/07/18 23:28:51;;;;;;;2.85;1.17;;;30.60;78.50;;;;;;10774607;27;20036;-73
2023/07/18 23:34:53;;;;;;;2.37;1.30;;;30.60;78.30;;;;;;10789224;33;20035;-73
2023/07/18 23:40:55;;;;;;;2.42;1.15;;;30.70;78.10;;;;;;10788204;33;20039;-73
2023/07/18 23:46:57;;;;;;;2.42;1.70;;;30.50;78.30;;;;;;10788256;33;20033;-73
2023/07/18 23:52:59;;;;;;;3.20;1.90;;;30.60;77.90;;;;;;10788657;33;20086;-73
2023/07/18 23:59:00;;;;;;;0.75;0.73;;;30.60;77.90;;;;;;10787534;33;20028;-73
